メルボルン の空港の天気 - METARとTAF

メルボルン空港 ( YMML / MEL ) - オーストラリア ビクトリア州、Melbourne Airport
飛行場実況気象(Metar)
観測時間05/30 03:00 AEST (05/29 17:00 UTC)
風向・風速北 10m/s
視程10km以上
天気現象
なし
気温11℃
湿度82%
気圧1022hPa
METARYMML 291700Z 01019KT CAVOK 11/08 Q1022 FM1700 MOD TURB BLW 5000FT
過去の天気等 Google飛行場航空写真 Wunderground天気予報

過去48時間のMETAR

飛行場予報(TAF)
発表時間: 5/29 23:41 AEST (5/29 13:41 UTC)
予報対象時間: 29日23時 AEST ~ 31日4時 AEST
風向・風速北 8m/s 瞬間風速 13m/s
視程10km以上
少しの雲 雲底高度 240m
30日8時 AEST から
風向・風速北 8m/s 瞬間風速 14m/s
視程10km以上
少しの雲 雲底高度 370m
30日11時 AEST から
風向・風速北 10m/s 瞬間風速 17m/s
視程10km以上
なし
30日18時 AEST から
風向・風速北 8m/s 瞬間風速 14m/s
視程10km以上
全天の4割程度の雲 雲底高度 1220m
31日1時 AEST から
風向・風速北 8m/s 瞬間風速 13m/s
視程10km以上
少しの雲 雲底高度 1220m
TAF AMD YMML 291341Z 2913/3018 01015G25KT 9999 FEW008
FM292200 01016G28KT 9999 FEW012
FM300100 01020G34KT CAVOK
FM300800 01015G28KT 9999 SCT040
FM301500 35015G25KT 9999 FEW040